Time;durP1;ratioP1;P1;durP2;ratioP2;P2;SDS_P1;SDS_P2;PMS_P1;PMS_P2;Temp;Humidity;BMP_temperature;BMP_pressure;BME280_temperature;BME280_humidity;BME280_pressure;Samples;Min_cycle;Max_cycle;Signal;HPM_P1;HPM_P2
2023/11/06 00:01:34;;;;;;;13.63;3.08;;;;;;;8.06;100.00;99262.00;5045361;28;20112;-77
2023/11/06 00:03:59;;;;;;;16.13;2.88;;;;;;;8.02;100.00;99258.53;5042600;28;20030;-72
2023/11/06 00:06:25;;;;;;;13.30;3.03;;;;;;;7.96;100.00;99265.63;5046104;28;20021;-76
2023/11/06 00:08:50;;;;;;;13.52;2.85;;;;;;;7.97;100.00;99273.50;5041927;28;20477;-76
2023/11/06 00:11:15;;;;;;;13.55;2.80;;;;;;;7.95;100.00;99258.59;5044529;28;20392;-74
2023/11/06 00:19:37;;;;;;;10.63;2.38;;;;;;;7.93;100.00;99270.91;5044969;28;20028;-72
2023/11/06 00:24:27;;;;;;;7.90;2.30;;;;;;;7.92;100.00;99271.78;5045774;28;20025;-77
2023/11/06 00:26:53;;;;;;;5.40;2.10;;;;;;;7.97;100.00;99281.38;5042259;28;20034;-68
2023/11/06 00:29:18;;;;;;;9.82;2.22;;;;;;;7.96;100.00;99279.63;5044619;28;20034;-77
2023/11/06 00:31:44;;;;;;;10.75;2.20;;;;;;;7.89;100.00;99275.31;5043420;28;20098;-76
2023/11/06 00:34:10;;;;;;;8.10;2.08;;;;;;;7.86;100.00;99285.88;5043210;28;20075;-77
2023/11/06 00:36:35;;;;;;;11.63;2.30;;;;;;;7.84;100.00;99282.41;5044582;28;20017;-76
2023/11/06 00:39:00;;;;;;;8.25;2.30;;;;;;;7.75;100.00;99314.06;5042277;28;20035;-75
2023/11/06 00:41:26;;;;;;;7.90;2.20;;;;;;;7.84;100.00;99295.56;5045165;28;20047;-76
2023/11/06 00:43:52;;;;;;;7.38;2.30;;;;;;;7.83;100.00;99304.31;5042299;28;20029;-73
2023/11/06 00:46:17;;;;;;;7.43;2.30;;;;;;;7.81;100.00;99303.47;5044313;28;20472;-76
2023/11/06 00:48:42;;;;;;;8.95;2.40;;;;;;;7.80;100.00;99306.97;5043224;28;20073;-74
2023/11/06 00:51:08;;;;;;;12.25;2.70;;;;;;;7.78;100.00;99319.28;5043003;28;20095;-77
2023/11/06 00:53:33;;;;;;;11.52;2.70;;;;;;;7.81;100.00;99320.13;5044530;28;20078;-76
2023/11/06 00:55:58;;;;;;;11.88;3.00;;;;;;;7.77;100.00;99320.16;5041598;28;20037;-77
2023/11/06 00:58:24;;;;;;;11.90;3.20;;;;;;;7.78;100.00;99324.56;5043729;28;20383;-77
2023/11/06 01:00:50;;;;;;;12.90;2.90;;;;;;;7.78;100.00;99329.81;5042230;28;20484;-77
2023/11/06 01:03:15;;;;;;;14.15;3.17;;;;;;;7.77;100.00;99342.06;5043448;28;20443;-76
2023/11/06 01:05:40;;;;;;;12.93;3.33;;;;;;;7.71;100.00;99331.59;5043493;28;20029;-76
2023/11/06 01:08:06;;;;;;;15.98;3.53;;;;;;;7.73;100.00;99339.47;5042200;28;20049;-77
2023/11/06 01:10:35;;;;;;;15.18;3.65;;;;;;;7.75;100.00;99335.09;5044794;28;20052;-71
2023/11/06 01:13:02;;;;;;;14.23;3.70;;;;;;;7.73;100.00;99342.97;5041607;28;20029;-74
2023/11/06 01:15:28;;;;;;;14.75;3.65;;;;;;;7.70;100.00;99343.00;5044701;28;20083;-72
2023/11/06 01:17:54;;;;;;;15.45;3.65;;;;;;;7.68;100.00;99350.91;5041647;28;20427;-76
2023/11/06 01:20:22;;;;;;;16.27;3.75;;;;;;;7.74;100.00;99350.00;5044053;28;20388;-73
2023/11/06 01:22:48;;;;;;;14.15;3.40;;;;;;;7.75;100.00;99351.75;5040762;28;20435;-67
2023/11/06 01:25:14;;;;;;;17.77;3.70;;;;;;;7.81;100.00;99356.09;5043135;28;20091;-64
2023/11/06 01:27:39;;;;;;;17.50;3.65;;;;;;;7.87;100.00;99358.66;5043179;28;20029;-64
2023/11/06 01:30:06;;;;;;;16.77;3.50;;;;;;;7.90;100.00;99365.66;5041616;28;20039;-64
2023/11/06 01:32:32;;;;;;;16.23;3.50;;;;;;;7.87;100.00;99368.34;5044294;28;20021;-64
2023/11/06 01:34:58;;;;;;;15.40;3.58;;;;;;;7.90;100.00;99378.81;5041171;28;20037;-64
2023/11/06 01:37:25;;;;;;;16.52;3.60;;;;;;;7.83;100.00;99385.88;5044213;28;20388;-65
2023/11/06 01:39:51;;;;;;;14.48;3.50;;;;;;;7.81;100.00;99383.25;5041716;28;20428;-64
2023/11/06 01:42:16;;;;;;;16.17;3.50;;;;;;;7.81;100.00;99382.41;5043260;28;20075;-64
2023/11/06 01:44:42;;;;;;;15.32;3.60;;;;;;;7.87;100.00;99384.97;5042225;28;20075;-64
2023/11/06 01:47:09;;;;;;;14.55;3.40;;;;;;;7.82;100.00;99387.66;5041794;28;20021;-66
2023/11/06 01:49:35;;;;;;;17.02;3.40;;;;;;;7.78;100.00;99412.22;5044176;28;20033;-64
2023/11/06 01:52:03;;;;;;;15.98;3.40;;;;;;;7.79;100.00;99410.47;5040896;28;20472;-64
2023/11/06 01:54:29;;;;;;;14.10;3.50;;;;;;;7.76;100.00;99408.75;5044221;28;20032;-64
2023/11/06 01:56:55;;;;;;;13.70;3.33;;;;;;;7.74;100.00;99417.53;5041086;28;20049;-64
2023/11/06 01:59:21;;;;;;;17.95;3.50;;;;;;;7.68;100.00;99413.19;5043386;28;20052;-64
2023/11/06 02:01:50;;;;;;;15.15;3.33;;;;;;;7.63;100.00;99413.22;5042099;28;20079;-64
2023/11/06 02:04:15;;;;;;;14.95;3.20;;;;;;;7.64;100.00;99416.69;5042866;28;20064;-64
2023/11/06 02:06:43;;;;;;;14.98;3.38;;;;;;;7.63;100.00;99415.84;5042981;28;20053;-65
2023/11/06 02:09:09;;;;;;;16.63;3.00;;;;;;;7.57;100.00;99415.88;5041714;28;20030;-65
2023/11/06 02:11:34;;;;;;;14.50;3.10;;;;;;;7.67;100.00;99429.84;5043727;28;20103;-66
2023/11/06 02:13:59;;;;;;;13.27;3.17;;;;;;;7.64;100.00;99421.97;5040907;28;20095;-66
2023/11/06 02:16:25;;;;;;;14.88;3.00;;;;;;;7.60;100.00;99436.91;5044042;28;20021;-65
2023/11/06 02:18:50;;;;;;;15.05;3.00;;;;;;;7.59;100.00;99429.88;5041333;28;20033;-66
2023/11/06 02:21:15;;;;;;;13.13;3.20;;;;;;;7.59;100.00;99440.41;5042473;28;20535;-66
2023/11/06 02:23:42;;;;;;;14.15;3.05;;;;;;;7.60;100.00;99436.91;5042626;28;20104;-65
2023/11/06 02:26:09;;;;;;;13.68;2.80;;;;;;;7.58;100.00;99443.91;5041360;28;20491;-66
2023/11/06 02:28:35;;;;;;;11.38;2.90;;;;;;;7.60;100.00;99436.00;5043548;28;20392;-68
2023/11/06 02:31:01;;;;;;;13.02;3.10;;;;;;;7.59;100.00;99447.44;5040506;28;20453;-66
2023/11/06 02:33:26;;;;;;;13.57;2.90;;;;;;;7.50;100.00;99451.00;5043785;28;20124;-66
2023/11/06 02:35:51;;;;;;;14.25;2.92;;;;;;;7.57;100.00;99452.72;5040923;28;20100;-66
2023/11/06 02:38:17;;;;;;;12.80;2.85;;;;;;;7.57;100.00;99449.19;5041610;28;20069;-66
2023/11/06 02:40:43;;;;;;;13.13;2.80;;;;;;;7.57;100.00;99449.19;5042207;28;20052;-65
2023/11/06 02:43:08;;;;;;;11.75;2.70;;;;;;;7.59;100.00;99456.19;5041491;28;20041;-67
2023/11/06 02:45:33;;;;;;;11.93;2.50;;;;;;;7.55;100.00;99457.09;5043576;28;20115;-65
2023/11/06 02:47:59;;;;;;;13.40;3.00;;;;;;;7.52;100.00;99472.88;5040518;28;20021;-68
2023/11/06 02:50:26;;;;;;;10.73;2.70;;;;;;;7.53;100.00;99468.50;5043504;28;20108;-66
2023/11/06 02:52:52;;;;;;;9.90;2.55;;;;;;;7.52;100.00;99474.66;5041036;28;20025;-70
2023/11/06 02:55:17;;;;;;;10.38;2.70;;;;;;;7.52;100.00;99469.38;5042700;28;20021;-66
2023/11/06 02:57:43;;;;;;;11.05;2.70;;;;;;;7.54;100.00;99472.88;5042754;28;20128;-66
2023/11/06 03:00:11;;;;;;;10.00;2.67;;;;;;;7.50;100.00;99467.63;5044857;28;20456;-69
2023/11/06 03:02:37;;;;;;;10.20;2.53;;;;;;;7.51;100.00;99473.75;5046377;28;20036;-66
2023/11/06 03:05:06;;;;;;;10.23;2.40;;;;;;;7.46;100.00;99491.31;5043881;28;20531;-69
2023/11/06 03:07:33;;;;;;;12.10;2.88;;;;;;;7.51;100.00;99484.28;5047202;28;20115;-66
2023/11/06 03:09:58;;;;;;;12.70;2.65;;;;;;;7.42;100.00;99479.94;5043707;28;20033;-70
2023/11/06 03:12:23;;;;;;;13.63;2.70;;;;;;;7.43;100.00;99493.97;5046519;28;20091;-75
2023/11/06 03:14:49;;;;;;;14.18;2.80;;;;;;;7.49;100.00;99497.44;5044807;28;20064;-76
2023/11/06 03:17:14;;;;;;;12.57;2.60;;;;;;;7.51;100.00;99500.06;5045498;28;20500;-66
2023/11/06 03:19:40;;;;;;;14.93;2.65;;;;;;;7.43;100.00;99493.97;5044599;28;20029;-66
2023/11/06 03:22:06;;;;;;;11.70;2.85;;;;;;;7.43;100.00;99491.34;5044153;28;20031;-66
2023/11/06 03:24:32;;;;;;;11.32;2.50;;;;;;;7.41;100.00;99504.50;5046685;28;20021;-67
2023/11/06 03:26:57;;;;;;;12.77;2.65;;;;;;;7.38;100.00;99508.88;5043549;28;20033;-65
2023/11/06 03:29:22;;;;;;;10.75;2.50;;;;;;;7.52;100.00;99506.22;5046062;28;20041;-67
2023/11/06 03:31:48;;;;;;;11.20;2.47;;;;;;;7.44;100.00;99519.38;5044237;28;20048;-67
2023/11/06 03:34:15;;;;;;;13.20;2.80;;;;;;;7.39;100.00;99524.66;5045121;28;20034;-67
2023/11/06 03:36:42;;;;;;;11.55;2.53;;;;;;;7.38;100.00;99522.03;5045139;28;20070;-67
2023/11/06 03:39:08;;;;;;;11.27;2.42;;;;;;;7.49;100.00;99534.25;5043796;28;20033;-67
2023/11/06 03:41:33;;;;;;;10.05;2.42;;;;;;;7.43;100.00;99528.16;5046326;28;20120;-69
2023/11/06 03:43:58;;;;;;;12.05;2.40;;;;;;;7.44;100.00;99519.38;5043038;28;20512;-66
2023/11/06 03:46:25;;;;;;;12.93;2.60;;;;;;;7.41;100.00;99541.31;5046009;28;20415;-67
2023/11/06 03:48:50;;;;;;;12.50;2.70;;;;;;;7.46;100.00;99523.75;5043918;28;20104;-68
2023/11/06 03:51:16;;;;;;;10.95;2.40;;;;;;;7.43;100.00;99526.38;5044691;28;20075;-67
2023/11/06 03:53:41;;;;;;;13.18;2.50;;;;;;;7.43;100.00;99533.41;5045169;28;20033;-67
2023/11/06 03:56:07;;;;;;;11.20;2.60;;;;;;;7.48;100.00;99539.50;5043607;28;20464;-67
2023/11/06 03:58:33;;;;;;;13.52;2.60;;;;;;;7.40;100.00;99538.69;5045998;28;20116;-67
2023/11/06 04:00:58;;;;;;;13.25;2.63;;;;;;;7.42;100.00;99540.41;5042656;28;20109;-67
2023/11/06 04:03:24;;;;;;;12.63;2.63;;;;;;;7.40;100.00;99575.50;5045729;28;20064;-67
2023/11/06 04:05:49;;;;;;;12.43;2.80;;;;;;;7.43;100.00;99559.72;5043522;28;20107;-66
2023/11/06 04:08:14;;;;;;;11.27;2.25;;;;;;;7.43;100.00;99534.28;5044019;28;20026;-68
2023/11/06 04:10:40;;;;;;;12.20;2.63;;;;;;;7.44;100.00;99550.91;5044654;28;20071;-67
2023/11/06 04:13:06;;;;;;;11.40;2.50;;;;;;;7.42;100.00;99545.66;5042838;28;20029;-67
2023/11/06 04:15:31;;;;;;;13.20;2.50;;;;;;;7.42;100.00;99547.44;5045945;28;20392;-67
2023/11/06 04:17:56;;;;;;;12.98;2.63;;;;;;;7.36;100.00;99548.31;5042401;28;20037;-67
2023/11/06 04:20:21;;;;;;;13.20;2.60;;;;;;;7.39;100.00;99553.56;5044959;28;20033;-69
2023/11/06 04:22:47;;;;;;;8.25;2.30;;;;;;;7.39;100.00;99555.34;5043935;28;20045;-69
2023/11/06 04:25:12;;;;;;;11.48;2.50;;;;;;;7.38;100.00;99571.97;5043470;28;20029;-69
2023/11/06 04:27:37;;;;;;;11.27;2.40;;;;;;;7.44;100.00;99574.59;5044685;28;20028;-69
2023/11/06 04:30:03;;;;;;;11.55;2.22;;;;;;;7.53;100.00;99571.94;5042374;28;20082;-73
2023/11/06 04:32:29;;;;;;;11.30;2.50;;;;;;;7.63;100.00;99581.53;5045529;28;20376;-70
2023/11/06 04:34:54;;;;;;;12.48;2.50;;;;;;;7.55;100.00;99572.81;5042311;28;20030;-70
2023/11/06 04:37:21;;;;;;;11.90;2.50;;;;;;;7.52;100.00;99590.34;5044504;28;20053;-70
2023/11/06 04:39:46;;;;;;;11.55;2.30;;;;;;;7.49;100.00;99575.47;5043246;28;20047;-69
2023/11/06 04:42:12;;;;;;;9.45;2.40;;;;;;;7.54;100.00;99588.59;5043121;28;20033;-71
2023/11/06 04:44:37;;;;;;;13.13;2.53;;;;;;;7.56;100.00;99577.19;5044761;28;20029;-72
2023/11/06 04:47:03;;;;;;;13.50;2.63;;;;;;;7.51;100.00;99578.94;5041833;28;20041;-70
2023/11/06 04:49:29;;;;;;;12.70;2.38;;;;;;;7.45;100.00;99581.59;5044181;28;20037;-69
2023/11/06 04:51:54;;;;;;;14.38;2.70;;;;;;;7.45;100.00;99600.00;5042066;28;20044;-69
2023/11/06 04:54:19;;;;;;;12.20;2.53;;;;;;;7.44;100.00;99598.25;5043948;28;20032;-68
2023/11/06 04:56:47;;;;;;;13.75;2.70;;;;;;;7.45;100.00;99594.75;5042273;28;20043;-68
2023/11/06 04:59:12;;;;;;;15.20;2.70;;;;;;;7.48;100.00;99593.00;5042856;28;20472;-68
2023/11/06 05:01:38;;;;;;;14.77;2.80;;;;;;;7.47;100.00;99609.66;5044141;28;20031;-68
2023/11/06 05:04:03;;;;;;;14.27;2.90;;;;;;;7.47;100.00;99604.38;5041797;28;20034;-67
2023/11/06 05:06:29;;;;;;;16.30;3.10;;;;;;;7.39;100.00;99610.53;5045112;28;20111;-68
2023/11/06 05:08:54;;;;;;;14.82;3.10;;;;;;;7.47;100.00;99608.75;5041712;28;20487;-68
2023/11/06 05:11:19;;;;;;;12.32;3.00;;;;;;;7.52;100.00;99609.63;5043823;28;20038;-67
2023/11/06 05:13:45;;;;;;;18.63;3.35;;;;;;;7.57;100.00;99613.13;5043038;28;20032;-67
2023/11/06 05:16:10;;;;;;;17.45;3.20;;;;;;;7.54;100.00;99610.50;5042300;28;20025;-69
2023/11/06 05:18:36;;;;;;;15.90;3.40;;;;;;;7.60;100.00;99614.84;5044618;28;20028;-68
2023/11/06 05:21:01;;;;;;;18.35;3.50;;;;;;;7.62;100.00;99613.97;5040614;28;20380;-67
2023/11/06 05:23:26;;;;;;;15.02;3.22;;;;;;;7.62;100.00;99619.25;5044579;28;20073;-69
2023/11/06 05:25:52;;;;;;;16.35;3.30;;;;;;;7.72;100.00;99621.84;5040883;28;20038;-67
2023/11/06 05:28:17;;;;;;;19.20;3.38;;;;;;;7.73;100.00;99636.75;5042995;28;20061;-67
2023/11/06 05:30:43;;;;;;;20.80;3.67;;;;;;;7.71;100.00;99628.00;5043208;28;20081;-68
2023/11/06 05:33:09;;;;;;;18.38;3.63;;;;;;;7.70;100.00;99624.47;5042192;28;20029;-66
2023/11/06 05:35:35;;;;;;;17.73;3.63;;;;;;;7.77;100.00;99627.97;5044384;28;20029;-69
2023/11/06 05:38:02;;;;;;;20.00;4.22;;;;;;;7.84;100.00;99622.66;5041122;28;20037;-77
2023/11/06 05:40:27;;;;;;;20.90;4.18;;;;;;;7.93;100.00;99634.91;5044326;28;20053;-77
2023/11/06 05:42:52;;;;;;;17.88;3.85;;;;;;;8.01;100.00;99637.53;5040249;28;20095;-76
2023/11/06 05:45:18;;;;;;;21.20;4.00;;;;;;;8.01;100.00;99633.13;5043145;28;20396;-77
2023/11/06 05:47:43;;;;;;;18.92;3.83;;;;;;;7.97;100.00;99641.06;5042894;28;20031;-76
2023/11/06 05:50:09;;;;;;;19.58;3.92;;;;;;;7.90;100.00;99634.94;5041621;28;20028;-73
2023/11/06 05:52:35;;;;;;;17.73;4.10;;;;;;;8.03;100.00;99635.75;5044446;28;20387;-77
2023/11/06 05:55:00;;;;;;;21.95;4.28;;;;;;;8.04;100.00;99634.88;5040867;28;20017;-77
2023/11/06 05:57:25;;;;;;;20.27;4.43;;;;;;;8.02;100.00;99634.00;5043762;28;20032;-75
2023/11/06 05:59:51;;;;;;;18.17;3.90;;;;;;;8.05;100.00;99633.13;5041875;28;20023;-71
2023/11/06 06:02:16;;;;;;;18.55;3.90;;;;;;;8.07;100.00;99648.03;5042477;28;20533;-77
2023/11/06 06:04:41;;;;;;;19.75;4.03;;;;;;;8.09;100.00;99658.53;5043010;28;20472;-73
2023/11/06 06:07:07;;;;;;;19.45;3.95;;;;;;;8.10;100.00;99663.81;5041481;28;20028;-69
2023/11/06 06:09:33;;;;;;;22.42;4.35;;;;;;;8.10;100.00;99668.19;5044078;28;20475;-77
2023/11/06 06:11:59;;;;;;;19.65;4.10;;;;;;;8.17;100.00;99677.81;5036827;28;20029;-78
2023/11/06 06:14:25;;;;;;;21.60;4.10;;;;;;;8.16;100.00;99670.78;5043491;28;20021;-77
2023/11/06 06:16:50;;;;;;;21.17;4.15;;;;;;;8.15;100.00;99671.66;5042007;28;20116;-77
2023/11/06 06:19:18;;;;;;;19.40;4.00;;;;;;;8.06;100.00;99677.84;5042553;28;20030;-77
2023/11/06 06:21:45;;;;;;;21.40;3.80;;;;;;;8.07;100.00;99679.63;5042182;28;20116;-77
2023/11/06 06:24:11;;;;;;;20.05;4.07;;;;;;;7.95;100.00;99674.38;5041715;28;20375;-77
2023/11/06 06:26:37;;;;;;;19.13;4.40;;;;;;;7.81;100.00;99672.66;5043315;28;20025;-78
2023/11/06 06:29:03;;;;;;;21.17;4.25;;;;;;;7.73;100.00;99670.94;5040356;28;20435;-72
2023/11/06 06:31:28;;;;;;;19.88;3.83;;;;;;;7.75;100.00;99663.94;5045499;28;20045;-78
2023/11/06 06:33:54;;;;;;;20.20;4.18;;;;;;;7.76;100.00;99669.19;5045221;28;20490;-77
2023/11/06 06:36:19;;;;;;;18.55;3.88;;;;;;;7.79;100.00;99663.91;5046401;28;20025;-77
2023/11/06 06:38:44;;;;;;;21.30;4.25;;;;;;;7.74;100.00;99675.34;5046011;28;20371;-77
2023/11/06 06:41:10;;;;;;;18.65;4.10;;;;;;;7.74;100.00;99673.56;5045205;28;20033;-67
2023/11/06 06:43:35;;;;;;;19.98;4.07;;;;;;;7.79;100.00;99691.97;5047406;28;20041;-67
2023/11/06 06:46:02;;;;;;;19.35;3.80;;;;;;;7.95;100.00;99670.00;5044027;28;20057;-68
2023/11/06 06:48:28;;;;;;;22.27;4.40;;;;;;;7.90;100.00;99684.91;5047460;28;20519;-67
2023/11/06 06:50:53;;;;;;;18.67;3.90;;;;;;;7.87;100.00;99697.22;5044946;28;20120;-69
2023/11/06 06:53:19;;;;;;;18.10;3.85;;;;;;;7.89;100.00;99700.72;5045962;28;20061;-67
2023/11/06 06:55:44;;;;;;;16.35;3.40;;;;;;;7.96;100.00;99705.09;5046136;28;20463;-68
2023/11/06 06:58:09;;;;;;;17.60;3.40;;;;;;;7.93;100.00;99692.81;5044540;28;20034;-67
2023/11/06 07:00:35;;;;;;;21.65;3.92;;;;;;;7.85;100.00;99711.25;5047266;28;20464;-68
2023/11/06 07:03:05;;;;;;;20.13;3.85;;;;;;;7.82;100.00;99705.09;5043561;28;20037;-67
2023/11/06 07:05:31;;;;;;;19.95;3.67;;;;;;;7.75;100.00;99706.03;5039898;28;20024;-68
2023/11/06 07:07:56;;;;;;;20.05;3.60;;;;;;;7.80;100.00;99718.28;5047237;28;20037;-68
2023/11/06 07:10:22;;;;;;;19.70;3.40;;;;;;;7.87;100.00;99713.88;5043795;28;20360;-67
2023/11/06 07:12:47;;;;;;;19.75;3.75;;;;;;;7.79;100.00;99710.38;5045442;28;20025;-66
2023/11/06 07:15:12;;;;;;;18.08;3.53;;;;;;;7.73;100.00;99726.19;5046149;28;20037;-67
2023/11/06 07:17:38;;;;;;;18.65;4.05;;;;;;;7.77;100.00;99712.16;5043968;28;20029;-64
2023/11/06 07:20:04;;;;;;;20.55;3.75;;;;;;;7.81;100.00;99734.94;5045608;28;20036;-65
2023/11/06 07:22:30;;;;;;;18.17;3.78;;;;;;;7.79;100.00;99731.44;5039758;28;20040;-65
2023/11/06 07:24:55;;;;;;;20.75;3.75;;;;;;;7.82;100.00;99736.69;5046126;28;20025;-67
2023/11/06 07:27:21;;;;;;;19.83;3.78;;;;;;;7.76;100.00;99745.50;5043193;28;20021;-66
2023/11/06 07:29:47;;;;;;;20.65;4.00;;;;;;;7.81;100.00;99740.22;5044938;28;20025;-67
2023/11/06 07:32:13;;;;;;;18.27;3.70;;;;;;;7.79;100.00;99737.59;5045211;28;20496;-67
2023/11/06 07:34:38;;;;;;;19.55;3.70;;;;;;;7.78;100.00;99748.13;5043982;28;20045;-65
2023/11/06 07:37:04;;;;;;;19.45;3.63;;;;;;;7.79;100.00;99744.59;5046701;28;20475;-66
2023/11/06 07:39:29;;;;;;;21.48;4.13;;;;;;;7.87;100.00;99755.97;5039025;28;20065;-66
2023/11/06 07:41:55;;;;;;;20.45;3.97;;;;;;;7.88;100.00;99759.47;5045502;28;20480;-65
2023/11/06 07:44:20;;;;;;;20.73;3.90;;;;;;;7.99;100.00;99745.44;5043670;28;20083;-64
2023/11/06 07:46:45;;;;;;;19.73;3.42;;;;;;;8.01;100.00;99753.34;5044436;28;20025;-68
2023/11/06 07:49:12;;;;;;;20.00;3.58;;;;;;;8.12;100.00;99758.56;5045610;28;20029;-67
2023/11/06 07:51:38;;;;;;;21.10;3.45;;;;;;;8.20;100.00;99754.16;5043489;28;20030;-67
2023/11/06 07:54:03;;;;;;;19.95;3.55;;;;;;;8.33;100.00;99742.69;5046176;28;20036;-67
2023/11/06 07:56:29;;;;;;;20.27;3.40;;;;;;;8.56;100.00;99760.16;5043309;28;20080;-66
2023/11/06 07:58:55;;;;;;;19.95;3.80;;;;;;;8.72;100.00;99747.78;5045421;28;20494;-67
2023/11/06 08:01:20;;;;;;;20.42;3.55;;;;;;;8.89;100.00;99758.25;5043689;28;20068;-67
2023/11/06 08:03:46;;;;;;;18.60;3.35;;;;;;;9.01;100.00;99752.03;5044363;28;20053;-67
2023/11/06 08:06:11;;;;;;;21.02;3.63;;;;;;;9.18;100.00;99758.06;5045020;28;20025;-67
2023/11/06 08:08:37;;;;;;;18.08;3.45;;;;;;;9.27;100.00;99772.94;5042759;28;20540;-67
2023/11/06 08:11:04;;;;;;;17.92;3.40;;;;;;;9.34;100.00;99761.44;5044895;28;20121;-67
2023/11/06 08:13:30;;;;;;;20.25;3.50;;;;;;;9.31;100.00;99764.13;5038299;28;20061;-68
2023/11/06 08:15:55;;;;;;;18.52;3.20;;;;;;;9.40;100.00;99776.34;5045230;28;20040;-67
2023/11/06 08:18:20;;;;;;;19.70;3.75;;;;;;;9.38;100.00;99776.38;5042602;28;20033;-67
2023/11/06 08:20:45;;;;;;;18.73;3.35;;;;;;;9.45;100.00;99789.50;5043704;28;20100;-67
2023/11/06 08:23:11;;;;;;;17.55;3.22;;;;;;;9.54;100.00;99782.41;5044755;28;20480;-66
2023/11/06 08:25:36;;;;;;;19.95;3.75;;;;;;;9.50;100.00;99790.34;5042799;28;20384;-69
2023/11/06 08:28:02;;;;;;;20.33;3.55;;;;;;;9.49;100.00;99792.09;5045616;28;20380;-67
2023/11/06 08:30:27;;;;;;;19.55;3.20;;;;;;;9.54;100.00;99792.09;5042228;28;20054;-67
2023/11/06 08:32:52;;;;;;;19.52;3.50;;;;;;;9.33;100.00;99787.84;5044654;28;20080;-67
2023/11/06 08:35:18;;;;;;;18.23;3.60;;;;;;;9.31;100.00;99793.13;5043635;28;20029;-67
2023/11/06 08:37:44;;;;;;;19.00;3.50;;;;;;;9.22;100.00;99793.19;5043226;28;20033;-66
2023/11/06 08:40:10;;;;;;;18.35;3.30;;;;;;;9.33;100.00;99809.81;5044983;28;20065;-67
2023/11/06 08:42:37;;;;;;;20.77;3.30;;;;;;;9.36;100.00;99801.91;5041767;28;20484;-68
2023/11/06 08:45:03;;;;;;;19.63;3.40;;;;;;;9.42;100.00;99798.31;5045532;28;20028;-66
2023/11/06 08:47:29;;;;;;;17.75;3.03;;;;;;;9.32;100.00;99797.53;5041932;28;20461;-67
2023/11/06 08:49:54;;;;;;;19.65;3.58;;;;;;;9.29;100.00;99808.09;5044210;28;20056;-67
2023/11/06 08:52:19;;;;;;;19.17;3.38;;;;;;;9.27;100.00;99804.56;5043277;28;20028;-68
2023/11/06 08:54:47;;;;;;;19.40;3.60;;;;;;;9.44;100.00;99801.81;5042929;28;20495;-67
2023/11/06 08:57:13;;;;;;;20.73;3.72;;;;;;;9.60;100.00;99800.81;5044166;28;20043;-69
2023/11/06 08:59:42;;;;;;;18.20;3.20;;;;;;;9.74;100.00;99805.97;5042223;28;20025;-68
2023/11/06 09:02:07;;;;;;;19.13;3.38;;;;;;;9.89;100.00;99820.81;5044733;28;20112;-68
2023/11/06 09:04:34;;;;;;;19.35;3.55;;;;;;;9.89;100.00;99822.56;5041485;28;20107;-68
2023/11/06 09:07:03;;;;;;;18.30;3.40;;;;;;;9.69;100.00;99813.06;5044961;28;20025;-65
2023/11/06 09:09:29;;;;;;;16.02;3.22;;;;;;;9.76;100.00;99816.53;5041804;28;20036;-65
2023/11/06 09:11:55;;;;;;;18.75;3.40;;;;;;;9.67;100.00;99821.84;5043892;28;20392;-65
2023/11/06 09:14:20;;;;;;;18.13;3.33;;;;;;;9.72;100.00;99833.28;5042926;28;20028;-65
2023/11/06 09:16:46;;;;;;;17.52;3.25;;;;;;;9.84;100.00;99832.28;5042696;28;20029;-65
2023/11/06 09:19:11;;;;;;;17.90;3.33;;;;;;;9.89;100.00;99827.84;5044021;28;20017;-67
2023/11/06 09:21:37;;;;;;;21.02;3.70;;;;;;;9.71;100.00;99832.41;5041592;28;20392;-64
2023/11/06 09:24:04;;;;;;;21.55;3.45;;;;;;;9.75;100.00;99843.78;5044666;28;20223;-65
2023/11/06 09:26:29;;;;;;;18.95;3.50;;;;;;;9.75;100.00;99844.66;5041456;28;20381;-65
2023/11/06 09:28:55;;;;;;;18.02;3.30;;;;;;;9.62;100.00;99839.50;5043861;28;20767;-65
2023/11/06 09:31:20;;;;;;;18.83;3.45;;;;;;;9.58;100.00;99850.09;5042285;28;20086;-67
2023/11/06 09:33:50;;;;;;;18.35;3.45;;;;;;;9.61;100.00;99841.28;5042386;28;20115;-64
2023/11/06 09:36:17;;;;;;;19.98;3.58;;;;;;;9.52;100.00;99836.97;5042817;28;20045;-65
2023/11/06 09:38:43;;;;;;;17.17;3.22;;;;;;;9.55;100.00;99839.56;5041963;28;20366;-65
2023/11/06 09:41:09;;;;;;;19.80;3.70;;;;;;;9.58;100.00;99844.81;5044018;28;20053;-65
2023/11/06 09:43:34;;;;;;;20.20;3.40;;;;;;;9.69;100.00;99842.06;5040999;28;20034;-65
2023/11/06 09:46:01;;;;;;;20.33;3.92;;;;;;;9.59;100.00;99861.50;5044187;28;20022;-65
2023/11/06 09:48:31;;;;;;;19.02;3.65;;;;;;;9.51;100.00;99856.28;5041704;28;20036;-65
2023/11/06 09:50:57;;;;;;;19.33;3.60;;;;;;;9.51;100.00;99856.28;5044099;28;20029;-64
2023/11/06 09:53:24;;;;;;;18.90;3.67;;;;;;;9.45;100.00;99856.34;5040660;28;20491;-65
2023/11/06 09:55:53;;;;;;;21.35;4.25;;;;;;;9.49;100.00;99868.59;5042839;28;20116;-65
2023/11/06 09:58:19;;;;;;;20.45;3.47;;;;;;;9.47;100.00;99869.53;5042580;28;20033;-65
2023/11/06 10:00:46;;;;;;;21.15;3.88;;;;;;;9.56;100.00;99864.19;5041864;28;20036;-66
2023/11/06 10:03:14;;;;;;;19.38;3.35;;;;;;;9.55;100.00;99863.31;5043475;28;20375;-65
2023/11/06 10:05:39;;;;;;;20.45;3.67;;;;;;;9.71;100.00;99885.19;5041878;28;20021;-65
2023/11/06 10:08:06;;;;;;;19.33;3.33;;;;;;;9.72;100.00;99892.19;5048304;28;20047;-64
2023/11/06 10:10:34;;;;;;;18.15;3.30;;;;;;;9.79;100.00;99881.63;5041037;28;20049;-64
2023/11/06 10:13:07;;;;;;;17.60;3.22;;;;;;;9.77;100.00;99879.84;5046942;28;20025;-66
2023/11/06 10:15:37;;;;;;;19.02;3.83;;;;;;;9.79;100.00;99886.91;5040952;28;20053;-66
2023/11/06 10:18:14;;;;;;;20.17;3.50;;;;;;;9.83;100.00;99885.97;5040752;28;20029;-66
2023/11/06 10:20:50;;;;;;;18.20;3.40;;;;;;;9.83;100.00;99888.59;5042027;28;20049;-66
2023/11/06 10:23:25;;;;;;;21.17;4.28;;;;;;;9.80;100.00;99894.81;5046636;28;20043;-66
2023/11/06 10:25:56;;;;;;;17.02;3.30;;;;;;;9.80;100.00;99891.25;5046716;28;20367;-66
2023/11/06 10:28:22;;;;;;;20.08;3.40;;;;;;;9.81;100.00;99903.59;5044689;28;20475;-68
2023/11/06 10:30:50;;;;;;;19.00;3.50;;;;;;;9.91;100.00;99894.69;5045783;28;20054;-67
2023/11/06 10:33:16;;;;;;;18.17;3.30;;;;;;;10.14;100.00;99896.28;5047064;28;20120;-67
2023/11/06 10:35:42;;;;;;;17.70;3.10;;;;;;;10.38;100.00;99893.44;5045262;28;20030;-66
2023/11/06 10:38:08;;;;;;;18.40;3.28;;;;;;;10.37;100.00;99902.25;5047518;28;20071;-67
2023/11/06 10:40:34;;;;;;;19.42;3.40;;;;;;;10.28;100.00;99903.19;5044381;28;20487;-70
2023/11/06 10:43:03;;;;;;;17.27;3.17;;;;;;;10.22;100.00;99897.97;5047256;28;20033;-73
2023/11/06 10:45:32;;;;;;;19.65;3.38;;;;;;;10.27;100.00;99895.28;5044491;28;20068;-70
2023/11/06 10:48:14;;;;;;;20.75;3.88;;;;;;;10.36;100.00;99905.78;5047243;28;20369;-69
2023/11/06 10:50:42;;;;;;;18.13;3.20;;;;;;;10.42;100.00;99905.72;5041583;28;20487;-78
2023/11/06 10:53:09;;;;;;;20.35;3.45;;;;;;;10.44;100.00;99906.59;5047471;28;20036;-78
2023/11/06 10:55:34;;;;;;;15.95;3.20;;;;;;;10.37;100.00;99907.53;5042811;28;20030;-78
2023/11/06 10:58:00;;;;;;;18.52;3.40;;;;;;;10.42;100.00;99905.72;5047321;28;20036;-78
2023/11/06 11:00:26;;;;;;;19.13;3.67;;;;;;;10.41;100.00;99896.06;5044607;28;20037;-78
2023/11/06 11:02:53;;;;;;;17.13;3.20;;;;;;;10.49;100.00;99906.53;5045803;28;20038;-72
2023/11/06 11:05:28;;;;;;;19.05;3.20;;;;;;;10.54;100.00;99901.19;5045818;28;20494;-67
2023/11/06 11:07:56;;;;;;;18.42;3.13;;;;;;;10.61;100.00;99908.16;5046217;28;20123;-67
2023/11/06 11:10:26;;;;;;;18.83;3.42;;;;;;;11.07;100.00;99909.44;5045037;28;20028;-66
2023/11/06 11:12:54;;;;;;;18.42;3.20;;;;;;;11.28;100.00;99902.97;5045625;28;20030;-65
2023/11/06 11:15:29;;;;;;;17.85;3.30;;;;;;;11.43;100.00;99900.13;5045385;28;20524;-67
2023/11/06 11:18:05;;;;;;;18.90;3.60;;;;;;;11.50;100.00;99893.84;5044960;28;20075;-66
2023/11/06 11:20:54;;;;;;;18.90;3.40;;;;;;;11.38;100.00;99883.41;5043556;28;20536;-67
2023/11/06 11:23:46;;;;;;;15.35;3.20;;;;;;;11.06;100.00;99907.66;5043368;28;20087;-67
2023/11/06 11:26:15;;;;;;;16.23;3.28;;;;;;;10.85;100.00;99900.84;5041524;28;20108;-67
2023/11/06 11:29:09;;;;;;;19.20;3.38;;;;;;;10.68;100.00;99901.06;5046105;28;20032;-67